createdAt,value
2019-01-03T00:00:26.095Z,69.65
2019-01-03T00:01:26.080Z,69.26
2019-01-03T00:02:26.042Z,68.71
2019-01-03T00:03:26.032Z,68.22
2019-01-03T00:04:26.022Z,68.32
2019-01-03T00:05:26.008Z,68.19
2019-01-03T00:06:26.026Z,68.43
2019-01-03T00:07:25.992Z,69.68
2019-01-03T00:08:26.637Z,69.47
2019-01-03T00:09:25.965Z,69.37
2019-01-03T00:10:25.953Z,69.65
2019-01-03T00:11:25.943Z,67.69
2019-01-03T00:12:25.964Z,68.53
2019-01-03T00:13:25.923Z,68.22
2019-01-03T00:14:25.909Z,68.32
2019-01-03T00:15:25.900Z,68.95
2019-01-03T00:16:25.891Z,69.16
2019-01-03T00:17:25.879Z,69.47
2019-01-03T00:18:25.894Z,68.74
2019-01-03T00:19:25.858Z,68.32
2019-01-03T00:20:25.844Z,69.06
2019-01-03T00:21:25.834Z,68.63
2019-01-03T00:22:25.821Z,68.57
2019-01-03T00:23:25.812Z,68.04
2019-01-03T00:24:25.827Z,69.19
2019-01-03T00:25:25.791Z,68.88
2019-01-03T00:26:25.779Z,69.82
2019-01-03T00:27:25.767Z,69.61
2019-01-03T00:28:25.756Z,69.51
2019-01-03T00:29:25.746Z,69.71
2019-01-03T00:30:25.766Z,69.51
2019-01-03T00:31:25.722Z,70.13
2019-01-03T00:32:25.711Z,70.24
2019-01-03T00:33:25.699Z,69.47
2019-01-03T00:34:25.688Z,69.61
2019-01-03T00:35:25.676Z,69.09
2019-01-03T00:36:25.693Z,69.82
2019-01-03T00:37:25.662Z,69.29
2019-01-03T00:38:25.643Z,69.40
2019-01-03T00:39:25.637Z,69.82
2019-01-03T00:40:25.621Z,69.29
2019-01-03T00:41:25.614Z,69.92
2019-01-03T00:42:25.630Z,70.13
2019-01-03T00:43:25.588Z,69.82
2019-01-03T00:44:25.578Z,69.51
2019-01-03T00:45:25.567Z,69.82
2019-01-03T00:46:25.555Z,69.40
2019-01-03T00:47:25.545Z,69.43
2019-01-03T00:48:25.563Z,70.06
2019-01-03T00:49:25.523Z,69.74
2019-01-03T00:50:25.511Z,69.74
2019-01-03T00:51:25.499Z,69.64
2019-01-03T00:52:25.489Z,70.17
2019-01-03T00:53:25.479Z,69.33
2019-01-03T00:54:25.498Z,69.74
2019-01-03T00:55:25.455Z,70.06
2019-01-03T00:56:25.446Z,69.95
2019-01-03T00:57:25.434Z,69.95
2019-01-03T00:58:25.422Z,70.06
2019-01-03T00:59:25.430Z,69.54
2019-01-03T01:00:25.429Z,70.27
2019-01-03T01:01:25.387Z,70.17
2019-01-03T01:02:25.376Z,70.30
2019-01-03T01:03:25.372Z,71.21
2019-01-03T01:04:25.403Z,71.11
2019-01-03T01:05:25.345Z,70.58
2019-01-03T01:06:25.364Z,69.95
2019-01-03T01:07:25.322Z,69.64
2019-01-03T01:08:25.310Z,70.06
2019-01-03T01:09:25.303Z,70.90
2019-01-03T01:10:25.288Z,71.21
2019-01-03T01:11:25.279Z,71.11
2019-01-03T01:12:25.296Z,70.72
2019-01-03T01:13:25.254Z,70.30
2019-01-03T01:14:25.244Z,69.88
2019-01-03T01:15:25.235Z,71.03
2019-01-03T01:16:25.245Z,71.66
2019-01-03T01:17:25.213Z,71.34
2019-01-03T01:18:25.239Z,71.45
2019-01-03T01:19:25.191Z,71.14
2019-01-03T01:20:25.178Z,71.24
2019-01-03T01:21:25.167Z,70.83
2019-01-03T01:22:25.169Z,71.97
2019-01-03T01:23:25.144Z,71.56
2019-01-03T01:24:25.169Z,71.56
2019-01-03T01:25:25.126Z,71.56
2019-01-03T01:26:25.110Z,71.66
2019-01-03T01:27:25.105Z,71.14
2019-01-03T01:28:25.088Z,71.45
2019-01-03T01:29:25.077Z,71.77
2019-01-03T01:30:25.093Z,71.56
2019-01-03T01:31:25.055Z,71.66
2019-01-03T01:32:25.043Z,71.45
2019-01-03T01:33:25.038Z,71.34
2019-01-03T01:34:25.025Z,71.45
2019-01-03T01:35:25.010Z,71.97
2019-01-03T01:36:25.030Z,71.56
2019-01-03T01:37:24.991Z,71.77
2019-01-03T01:38:24.979Z,71.77
2019-01-03T01:39:24.979Z,71.56
2019-01-03T01:40:24.953Z,71.66
2019-01-03T01:41:24.946Z,72.92
2019-01-03T01:42:24.965Z,71.56
2019-01-03T01:43:24.919Z,72.19
2019-01-03T01:44:24.911Z,71.87
2019-01-03T01:45:24.899Z,71.00
2019-01-03T01:46:24.890Z,71.56
2019-01-03T01:47:24.877Z,71.14
2019-01-03T01:48:24.896Z,71.87
2019-01-03T01:49:24.854Z,71.66
2019-01-03T01:50:24.842Z,72.47
2019-01-03T01:51:24.835Z,72.57
2019-01-03T01:52:24.820Z,71.66
2019-01-03T01:53:24.811Z,71.73
2019-01-03T01:54:24.829Z,71.52
2019-01-03T01:55:24.787Z,71.52
2019-01-03T01:56:24.777Z,71.42
2019-01-03T01:57:24.763Z,71.62
2019-01-03T01:58:24.754Z,71.52
2019-01-03T01:59:24.741Z,71.21
2019-01-03T02:00:24.760Z,71.31
2019-01-03T02:01:24.729Z,71.31
2019-01-03T02:02:24.710Z,71.52
2019-01-03T02:03:24.698Z,71.73
2019-01-03T02:04:24.687Z,71.77
2019-01-03T02:05:24.675Z,70.93
2019-01-03T02:06:24.694Z,72.39
2019-01-03T02:07:24.655Z,71.97
2019-01-03T02:08:24.642Z,72.08
2019-01-03T02:09:24.629Z,71.34
2019-01-03T02:10:24.621Z,72.29
2019-01-03T02:11:24.608Z,71.97
2019-01-03T02:12:24.627Z,71.34
2019-01-03T02:13:24.587Z,71.34
2019-01-03T02:14:24.574Z,71.97
2019-01-03T02:15:24.564Z,72.50
2019-01-03T02:16:24.559Z,72.71
2019-01-03T02:17:32.473Z,71.87
2019-01-03T02:18:32.380Z,72.29
2019-01-03T02:19:34.563Z,72.19
2019-01-03T02:20:32.346Z,72.50
2019-01-03T02:21:40.472Z,72.29
2019-01-03T02:22:34.670Z,72.71
2019-01-03T02:23:34.500Z,72.50
2019-01-03T02:24:24.465Z,72.50
2019-01-03T02:25:24.453Z,73.23
2019-01-03T02:26:24.440Z,72.92
2019-01-03T02:27:24.435Z,73.44
2019-01-03T02:28:24.448Z,73.13
2019-01-03T02:29:24.408Z,73.44
2019-01-03T02:30:24.396Z,73.02
2019-01-03T02:31:24.385Z,73.65
2019-01-03T02:32:24.378Z,73.44
2019-01-03T02:33:24.369Z,73.37
2019-01-03T02:34:24.383Z,73.13
2019-01-03T02:35:24.341Z,73.23
2019-01-03T02:36:24.332Z,73.65
2019-01-03T02:37:24.327Z,73.65
2019-01-03T02:38:24.311Z,73.54
2019-01-03T02:39:27.045Z,73.54
2019-01-03T02:40:24.314Z,74.31
2019-01-03T02:41:24.274Z,73.96
2019-01-03T02:42:24.263Z,73.75
2019-01-03T02:43:24.255Z,73.44
2019-01-03T02:44:24.257Z,73.02
2019-01-03T02:45:24.229Z,73.13
2019-01-03T02:46:24.265Z,73.13
2019-01-03T02:47:24.207Z,73.33
2019-01-03T02:48:24.202Z,73.54
2019-01-03T02:49:24.191Z,73.86
2019-01-03T02:50:24.180Z,74.07
2019-01-03T02:51:24.163Z,73.89
2019-01-03T02:52:24.181Z,73.99
2019-01-03T02:53:24.140Z,74.41
2019-01-03T02:54:24.130Z,74.21
2019-01-03T02:55:24.117Z,73.89
2019-01-03T02:56:24.107Z,74.52
2019-01-03T02:57:24.097Z,74.41
2019-01-03T02:58:24.113Z,74.41
2019-01-03T02:59:24.073Z,74.21
2019-01-03T03:00:24.064Z,73.89
2019-01-03T03:01:24.054Z,73.79
2019-01-03T03:02:24.039Z,74.21
2019-01-03T03:03:24.028Z,74.62
2019-01-03T03:04:24.047Z,73.99
2019-01-03T03:05:24.049Z,74.41
2019-01-03T03:06:23.995Z,75.25
2019-01-03T03:07:23.985Z,74.31
2019-01-03T03:08:23.976Z,74.62
2019-01-03T03:09:23.966Z,73.68
2019-01-03T03:10:23.992Z,73.99
2019-01-03T03:11:23.943Z,73.79
2019-01-03T03:12:23.928Z,74.27
2019-01-03T03:13:23.919Z,74.73
2019-01-03T03:14:23.911Z,74.73
2019-01-03T03:15:23.897Z,74.69
2019-01-03T03:16:23.924Z,74.41
2019-01-03T03:17:23.873Z,73.99
2019-01-03T03:18:23.867Z,74.10
2019-01-03T03:19:23.852Z,73.96
2019-01-03T03:20:23.839Z,73.79
2019-01-03T03:21:23.827Z,74.27
2019-01-03T03:22:23.843Z,73.96
2019-01-03T03:23:23.804Z,74.10
2019-01-03T03:24:23.795Z,74.10
2019-01-03T03:25:23.783Z,73.99
2019-01-03T03:26:23.775Z,74.52
2019-01-03T03:27:23.761Z,73.99
2019-01-03T03:28:23.781Z,73.75
2019-01-03T03:29:23.738Z,73.23
2019-01-03T03:30:23.733Z,73.37
2019-01-03T03:31:23.727Z,73.37
2019-01-03T03:32:23.706Z,73.37
2019-01-03T03:33:23.695Z,73.99
2019-01-03T03:34:23.709Z,73.47
2019-01-03T03:35:23.678Z,73.37
2019-01-03T03:36:23.661Z,73.89
2019-01-03T03:37:23.652Z,74.45
2019-01-03T03:38:23.639Z,74.21
2019-01-03T03:39:23.627Z,73.58
2019-01-03T03:40:23.644Z,73.37
2019-01-03T03:41:23.604Z,73.93
2019-01-03T03:42:23.593Z,73.99
2019-01-03T03:43:23.603Z,74.21
2019-01-03T03:44:23.571Z,73.47
2019-01-03T03:45:23.561Z,74.62
2019-01-03T03:46:23.581Z,74.31
2019-01-03T03:47:23.538Z,73.58
2019-01-03T03:48:23.526Z,73.47
2019-01-03T03:49:23.518Z,73.26
2019-01-03T03:50:23.505Z,73.58
2019-01-03T03:51:23.497Z,73.05
2019-01-03T03:52:23.512Z,73.13
2019-01-03T03:53:23.480Z,72.53
2019-01-03T03:54:23.459Z,72.71
2019-01-03T03:55:23.450Z,72.92
2019-01-03T03:56:23.438Z,72.60
2019-01-03T03:57:23.423Z,73.26
2019-01-03T03:58:23.443Z,72.95
2019-01-03T03:59:23.402Z,72.39
2019-01-03T04:00:23.391Z,72.53
2019-01-03T04:01:23.381Z,72.01
2019-01-03T04:02:23.368Z,72.85
2019-01-03T04:03:23.358Z,73.26
2019-01-03T04:04:23.371Z,73.54
2019-01-03T04:05:23.333Z,72.64
2019-01-03T04:06:23.324Z,72.64
2019-01-03T04:07:23.311Z,72.64
2019-01-03T04:08:23.304Z,73.05
2019-01-03T04:09:23.293Z,73.47
2019-01-03T04:10:23.321Z,73.68
2019-01-03T04:11:23.269Z,73.26
2019-01-03T04:12:23.261Z,73.47
2019-01-03T04:13:23.247Z,73.09
2019-01-03T04:14:23.240Z,73.58
2019-01-03T04:15:23.238Z,73.68
2019-01-03T04:16:23.251Z,73.26
2019-01-03T04:17:23.202Z,73.09
2019-01-03T04:18:23.206Z,73.40
2019-01-03T04:19:23.181Z,73.72
2019-01-03T04:20:23.168Z,73.05
2019-01-03T04:21:23.164Z,73.47
2019-01-03T04:22:23.176Z,73.19
2019-01-03T04:23:23.138Z,73.19
2019-01-03T04:24:23.124Z,73.40
2019-01-03T04:25:23.115Z,73.19
2019-01-03T04:26:23.103Z,73.40
2019-01-03T04:27:23.099Z,73.61
2019-01-03T04:28:23.112Z,74.13
2019-01-03T04:29:23.069Z,74.45
2019-01-03T04:30:23.054Z,73.82
2019-01-03T04:31:23.046Z,74.13
2019-01-03T04:32:23.036Z,74.03
2019-01-03T04:33:23.023Z,74.31
2019-01-03T04:34:23.048Z,73.82
2019-01-03T04:35:23.003Z,74.13
2019-01-03T04:36:22.994Z,73.19
2019-01-03T04:37:22.979Z,73.30
2019-01-03T04:38:22.973Z,73.50
2019-01-03T04:39:22.960Z,73.72
2019-01-03T04:40:22.979Z,73.40
2019-01-03T04:41:22.935Z,73.09
2019-01-03T04:42:22.923Z,73.47
2019-01-03T04:43:22.913Z,73.47
2019-01-03T04:44:22.901Z,73.37
2019-01-03T04:45:22.889Z,73.72
2019-01-03T04:46:22.909Z,74.13
2019-01-03T04:47:22.870Z,73.58
2019-01-03T04:48:22.860Z,73.72
2019-01-03T04:49:22.847Z,72.85
2019-01-03T04:50:22.836Z,73.37
2019-01-03T04:51:22.824Z,72.53
2019-01-03T04:52:22.839Z,72.77
2019-01-03T04:53:22.802Z,72.77
2019-01-03T04:54:22.790Z,73.19
2019-01-03T04:55:22.785Z,73.12
2019-01-03T04:56:22.767Z,73.54
2019-01-03T04:57:22.755Z,73.61
2019-01-03T04:58:22.776Z,73.93
2019-01-03T04:59:22.734Z,74.38
2019-01-03T05:00:22.722Z,73.96
2019-01-03T05:01:22.714Z,73.72
2019-01-03T05:02:22.701Z,73.40
2019-01-03T05:03:22.688Z,73.40
2019-01-03T05:04:22.706Z,73.30
2019-01-03T05:05:22.671Z,73.61
2019-01-03T05:06:22.656Z,73.61
2019-01-03T05:07:22.645Z,73.72
2019-01-03T05:08:22.635Z,73.61
2019-01-03T05:09:22.623Z,73.72
2019-01-03T05:10:22.642Z,73.50
2019-01-03T05:11:22.600Z,73.61
2019-01-03T05:12:22.589Z,73.30
2019-01-03T05:13:22.580Z,72.95
2019-01-03T05:14:22.565Z,72.35
2019-01-03T05:15:22.557Z,72.53
2019-01-03T05:16:22.575Z,72.67
2019-01-03T05:17:22.541Z,73.19
2019-01-03T05:18:22.523Z,72.98
2019-01-03T05:19:22.511Z,72.67
2019-01-03T05:20:22.499Z,73.72
2019-01-03T05:21:22.491Z,72.88
2019-01-03T05:22:22.507Z,72.88
2019-01-03T05:23:22.466Z,72.25
2019-01-03T05:24:22.455Z,72.67
2019-01-03T05:25:22.442Z,72.74
2019-01-03T05:26:22.431Z,73.40
2019-01-03T05:27:22.423Z,73.19
2019-01-03T05:28:22.438Z,72.25
2019-01-03T05:29:22.403Z,72.14
2019-01-03T05:30:22.386Z,72.56
2019-01-03T05:31:22.382Z,71.94
2019-01-03T05:32:22.375Z,71.73
2019-01-03T05:33:22.352Z,72.01
2019-01-03T05:34:22.369Z,71.94
2019-01-03T05:35:22.460Z,72.56
2019-01-03T05:36:22.320Z,71.94
2019-01-03T05:37:22.309Z,71.62
2019-01-03T05:38:22.298Z,71.73
2019-01-03T05:39:22.290Z,71.97
2019-01-03T05:40:22.303Z,72.07
2019-01-03T05:41:22.263Z,72.25
2019-01-03T05:42:22.252Z,72.91
2019-01-03T05:43:22.251Z,72.28
2019-01-03T05:44:22.233Z,72.98
2019-01-03T05:45:22.222Z,71.94
2019-01-03T05:46:22.241Z,71.94
2019-01-03T05:47:22.197Z,72.77
2019-01-03T05:48:22.190Z,72.56
2019-01-03T05:49:22.182Z,71.41
2019-01-03T05:50:22.164Z,72.35
2019-01-03T05:51:22.151Z,71.62
2019-01-03T05:52:22.172Z,71.62
2019-01-03T05:53:22.132Z,71.94
2019-01-03T05:54:22.119Z,71.20
2019-01-03T05:55:22.109Z,71.73
2019-01-03T05:56:22.099Z,71.62
2019-01-03T05:57:22.088Z,71.62
2019-01-03T05:58:22.127Z,71.55
2019-01-03T05:59:22.063Z,71.20
2019-01-03T06:00:22.052Z,71.73
2019-01-03T06:01:22.041Z,71.62
2019-01-03T06:02:22.031Z,71.83
2019-01-03T06:03:22.020Z,71.83
2019-01-03T06:04:22.035Z,71.62
2019-01-03T06:05:21.997Z,71.41
2019-01-03T06:06:21.993Z,71.10
2019-01-03T06:07:21.977Z,70.89
2019-01-03T06:08:21.965Z,71.38
2019-01-03T06:09:21.952Z,70.37
2019-01-03T06:10:21.976Z,71.17
2019-01-03T06:11:21.931Z,69.92
2019-01-03T06:12:21.921Z,71.20
2019-01-03T06:13:21.909Z,71.31
2019-01-03T06:14:21.910Z,70.68
2019-01-03T06:15:21.889Z,70.78
2019-01-03T06:16:21.902Z,70.57
2019-01-03T06:17:21.865Z,70.68
2019-01-03T06:18:21.854Z,70.89
2019-01-03T06:19:21.841Z,70.68
2019-01-03T06:20:21.835Z,71.31
2019-01-03T06:21:21.822Z,71.31
2019-01-03T06:22:21.839Z,70.89
2019-01-03T06:23:21.797Z,71.20
2019-01-03T06:24:21.785Z,70.89
2019-01-03T06:25:21.775Z,69.84
2019-01-03T06:26:21.765Z,70.26
2019-01-03T06:27:21.752Z,70.15
2019-01-03T06:28:21.770Z,71.10
2019-01-03T06:29:21.729Z,70.15
2019-01-03T06:30:21.717Z,72.07
2019-01-03T06:31:21.705Z,71.31
2019-01-03T06:32:21.694Z,71.20
2019-01-03T06:33:21.684Z,71.51
2019-01-03T06:34:21.710Z,72.14
2019-01-03T06:35:21.669Z,71.20
2019-01-03T06:36:21.654Z,70.99
2019-01-03T06:37:21.639Z,70.99
2019-01-03T06:38:21.631Z,70.89
2019-01-03T06:39:21.617Z,71.20
2019-01-03T06:40:21.633Z,70.05
2019-01-03T06:41:21.594Z,70.15
2019-01-03T06:42:21.586Z,69.70
2019-01-03T06:43:21.573Z,69.74
2019-01-03T06:44:21.568Z,69.81
2019-01-03T06:45:21.550Z,69.92
2019-01-03T06:46:21.573Z,70.02
2019-01-03T06:47:21.528Z,69.60
2019-01-03T06:48:21.520Z,69.42
2019-01-03T06:49:21.506Z,69.92
2019-01-03T06:50:21.493Z,69.63
2019-01-03T06:51:21.483Z,70.02
2019-01-03T06:52:21.498Z,69.92
2019-01-03T06:53:21.461Z,69.81
2019-01-03T06:54:21.453Z,69.49
2019-01-03T06:55:21.441Z,70.26
2019-01-03T06:56:21.431Z,69.81
2019-01-03T06:57:21.416Z,69.70
2019-01-03T06:58:21.436Z,69.81
2019-01-03T06:59:21.395Z,69.70
2019-01-03T07:00:21.383Z,70.02
2019-01-03T07:01:21.376Z,70.12
2019-01-03T07:02:21.360Z,69.49
2019-01-03T07:03:21.350Z,70.02
2019-01-03T07:04:21.371Z,69.60
2019-01-03T07:05:21.326Z,70.02
2019-01-03T07:06:21.315Z,69.99
2019-01-03T07:07:21.306Z,69.81
2019-01-03T07:08:21.293Z,70.02
2019-01-03T07:09:21.286Z,70.02
2019-01-03T07:10:21.305Z,69.57
2019-01-03T07:11:22.172Z,69.46
2019-01-03T07:12:21.255Z,69.39
2019-01-03T07:13:21.239Z,69.49
2019-01-03T07:14:30.109Z,70.02
2019-01-03T07:15:29.038Z,70.02
2019-01-03T07:16:31.185Z,69.36
2019-01-03T07:17:31.231Z,70.33
2019-01-03T07:18:32.274Z,70.12
2019-01-03T07:19:29.809Z,69.99
2019-01-03T07:20:29.850Z,69.78
2019-01-03T07:21:27.112Z,69.99
2019-01-03T07:22:22.136Z,70.20
2019-01-03T07:23:21.129Z,69.88
2019-01-03T07:24:21.123Z,69.67
2019-01-03T07:25:21.104Z,70.30
2019-01-03T07:26:21.096Z,70.20
2019-01-03T07:27:21.120Z,69.78
2019-01-03T07:28:21.069Z,69.99
2019-01-03T07:29:21.061Z,70.09
2019-01-03T07:30:21.048Z,69.88
2019-01-03T07:31:21.039Z,69.99
2019-01-03T07:32:21.027Z,69.81
2019-01-03T07:33:21.047Z,69.67
2019-01-03T07:34:21.003Z,69.88
2019-01-03T07:35:20.992Z,69.26
2019-01-03T07:36:20.981Z,69.36
2019-01-03T07:37:20.970Z,68.84
2019-01-03T07:38:20.961Z,68.10
2019-01-03T07:39:20.982Z,69.18
2019-01-03T07:40:20.938Z,68.84
2019-01-03T07:41:20.926Z,69.49
2019-01-03T07:42:20.937Z,69.49
2019-01-03T07:43:20.902Z,69.07
2019-01-03T07:44:20.904Z,68.94
2019-01-03T07:45:20.911Z,69.46
2019-01-03T07:46:20.869Z,69.04
2019-01-03T07:47:20.860Z,69.29
2019-01-03T07:48:21.142Z,69.29
2019-01-03T07:49:20.838Z,69.07
2019-01-03T07:50:20.826Z,69.70
2019-01-03T07:51:20.844Z,69.49
2019-01-03T07:52:20.821Z,69.15
2019-01-03T07:53:20.795Z,69.67
2019-01-03T07:54:20.783Z,68.31
2019-01-03T07:55:20.770Z,68.52
2019-01-03T07:56:22.178Z,68.10
2019-01-03T07:57:20.776Z,69.18
2019-01-03T07:58:20.738Z,68.73
2019-01-03T07:59:20.724Z,68.84
2019-01-03T08:00:20.714Z,68.55
2019-01-03T08:01:20.706Z,68.63
2019-01-03T08:02:20.696Z,68.00
2019-01-03T08:03:20.712Z,68.13
2019-01-03T08:04:20.676Z,67.82
2019-01-03T08:05:20.657Z,68.97
2019-01-03T08:06:20.645Z,68.76
2019-01-03T08:07:20.634Z,69.15
2019-01-03T08:08:20.625Z,68.52
2019-01-03T08:09:20.643Z,67.68
2019-01-03T08:10:20.602Z,67.79
2019-01-03T08:11:20.591Z,67.79
2019-01-03T08:12:20.582Z,67.79
2019-01-03T08:13:20.574Z,68.00
2019-01-03T08:14:20.556Z,68.13
2019-01-03T08:15:20.575Z,68.21
2019-01-03T08:16:20.535Z,67.79
2019-01-03T08:17:20.524Z,67.58
2019-01-03T08:18:20.513Z,68.10
2019-01-03T08:19:20.505Z,68.10
2019-01-03T08:20:20.494Z,68.00
2019-01-03T08:21:20.514Z,67.79
2019-01-03T08:22:20.469Z,68.10
2019-01-03T08:23:20.456Z,66.74
2019-01-03T08:24:20.445Z,66.85
2019-01-03T08:25:20.434Z,66.96
2019-01-03T08:26:20.423Z,67.27
2019-01-03T08:27:20.440Z,66.74
2019-01-03T08:28:20.408Z,66.01
2019-01-03T08:29:20.391Z,67.58
2019-01-03T08:30:20.379Z,67.86
2019-01-03T08:31:20.366Z,67.03
2019-01-03T08:32:20.357Z,67.13
2019-01-03T08:33:20.379Z,66.71
2019-01-03T08:34:20.333Z,66.61
2019-01-03T08:35:20.321Z,66.71
2019-01-03T08:36:20.309Z,66.19
2019-01-03T08:37:20.301Z,66.30
2019-01-03T08:38:20.287Z,66.68
2019-01-03T08:39:20.309Z,66.27
2019-01-03T08:40:20.268Z,65.33
2019-01-03T08:41:20.257Z,65.01
2019-01-03T08:42:20.246Z,65.53
2019-01-03T08:43:20.233Z,65.64
2019-01-03T08:44:20.223Z,65.43
2019-01-03T08:45:20.245Z,65.84
2019-01-03T08:46:20.201Z,65.43
2019-01-03T08:47:20.190Z,65.11
2019-01-03T08:48:20.179Z,65.11
2019-01-03T08:49:20.168Z,65.67
2019-01-03T08:50:20.155Z,65.88
2019-01-03T08:51:20.171Z,65.53
2019-01-03T08:52:20.132Z,65.53
2019-01-03T08:53:20.121Z,65.22
2019-01-03T08:54:20.109Z,65.33
2019-01-03T08:55:20.097Z,65.01
2019-01-03T08:56:20.088Z,65.01
2019-01-03T08:57:20.104Z,65.01
2019-01-03T08:58:20.065Z,65.33
2019-01-03T08:59:20.055Z,65.43
2019-01-03T09:00:20.045Z,64.70
2019-01-03T09:01:20.031Z,64.98
2019-01-03T09:02:20.023Z,63.93
2019-01-03T09:03:20.037Z,64.87
2019-01-03T09:04:19.998Z,64.17
2019-01-03T09:05:19.989Z,64.17
2019-01-03T09:06:19.976Z,64.28
2019-01-03T09:07:19.969Z,64.14
2019-01-03T09:08:19.955Z,64.07
2019-01-03T09:09:19.972Z,63.93
2019-01-03T09:10:19.934Z,64.25
2019-01-03T09:11:19.922Z,64.36
2019-01-03T09:12:19.911Z,63.73
2019-01-03T09:13:19.897Z,62.58
2019-01-03T09:14:19.888Z,62.99
2019-01-03T09:15:19.908Z,62.26
2019-01-03T09:16:19.865Z,62.58
2019-01-03T09:17:19.853Z,62.89
2019-01-03T09:18:19.842Z,63.07
2019-01-03T09:19:19.881Z,62.96
2019-01-03T09:20:19.825Z,62.48
2019-01-03T09:21:19.838Z,62.76
2019-01-03T09:22:19.800Z,63.10
2019-01-03T09:23:19.786Z,62.65
2019-01-03T09:24:19.777Z,62.45
2019-01-03T09:25:19.763Z,62.34
2019-01-03T09:26:19.756Z,61.82
2019-01-03T09:27:19.771Z,62.02
2019-01-03T09:28:19.734Z,62.13
2019-01-03T09:29:19.722Z,62.96
2019-01-03T09:30:19.708Z,61.82
2019-01-03T09:31:19.697Z,61.71
2019-01-03T09:32:19.693Z,62.16
2019-01-03T09:33:19.703Z,62.65
2019-01-03T09:34:19.664Z,62.48
2019-01-03T09:35:19.651Z,62.55
2019-01-03T09:36:19.642Z,62.24
2019-01-03T09:37:19.633Z,62.89
2019-01-03T09:38:19.619Z,63.10
2019-01-03T09:39:19.642Z,62.45
2019-01-03T09:40:19.598Z,62.65
2019-01-03T09:41:19.589Z,62.65
2019-01-03T09:42:19.575Z,62.45
2019-01-03T09:43:19.564Z,62.45
2019-01-03T09:44:19.552Z,61.92
2019-01-03T09:45:19.574Z,61.82
2019-01-03T09:46:19.531Z,62.76
2019-01-03T09:47:19.519Z,62.13
2019-01-03T09:48:19.506Z,62.34
2019-01-03T09:49:19.499Z,62.96
2019-01-03T09:50:19.489Z,62.13
2019-01-03T09:51:19.507Z,62.45
2019-01-03T09:52:19.465Z,62.96
2019-01-03T09:53:19.451Z,62.41
2019-01-03T09:54:19.443Z,61.79
2019-01-03T09:55:19.434Z,61.82
2019-01-03T09:56:19.423Z,61.92
2019-01-03T09:57:19.442Z,61.71
2019-01-03T09:58:19.400Z,61.82
2019-01-03T09:59:19.384Z,61.71
2019-01-03T10:00:19.373Z,61.82
2019-01-03T10:01:19.367Z,62.24
2019-01-03T10:02:19.356Z,61.92
2019-01-03T10:03:19.373Z,61.92
2019-01-03T10:04:19.328Z,61.92
2019-01-03T10:05:19.317Z,61.92
2019-01-03T10:06:19.309Z,62.13
2019-01-03T10:07:19.296Z,61.82
2019-01-03T10:08:19.644Z,62.02
2019-01-03T10:09:19.300Z,61.82
2019-01-03T10:10:19.260Z,61.92
2019-01-03T10:11:19.255Z,61.71
2019-01-03T10:12:19.240Z,62.13
2019-01-03T10:13:19.229Z,61.71
2019-01-03T10:14:19.217Z,62.45
2019-01-03T10:15:19.236Z,62.13
2019-01-03T10:16:19.195Z,61.71
2019-01-03T10:17:19.183Z,62.24
2019-01-03T10:18:19.173Z,62.55
2019-01-03T10:19:19.161Z,61.92
2019-01-03T10:20:19.152Z,61.82
2019-01-03T10:21:19.165Z,62.24
2019-01-03T10:22:19.128Z,62.52
2019-01-03T10:23:19.114Z,63.15
2019-01-03T10:24:19.106Z,62.41
2019-01-03T10:25:19.095Z,63.15
2019-01-03T10:26:19.084Z,62.96
2019-01-03T10:27:19.105Z,62.41
2019-01-03T10:28:19.060Z,62.73
2019-01-03T10:29:19.050Z,62.94
2019-01-03T10:30:19.055Z,61.79
2019-01-03T10:31:19.029Z,62.10
2019-01-03T10:32:19.014Z,61.69
2019-01-03T10:33:19.048Z,61.69
2019-01-03T10:34:18.998Z,62.41
2019-01-03T10:35:18.987Z,62.10
2019-01-03T10:36:24.281Z,62.31
2019-01-03T10:37:19.958Z,62.21
2019-01-03T10:38:21.115Z,62.00
2019-01-03T10:39:18.968Z,62.41
2019-01-03T10:40:18.937Z,62.00
2019-01-03T10:41:18.918Z,62.31
2019-01-03T10:42:18.904Z,62.49
2019-01-03T10:43:18.898Z,62.39
2019-01-03T10:44:18.881Z,61.66
2019-01-03T10:45:18.899Z,61.55
2019-01-03T10:46:18.864Z,62.31
2019-01-03T10:47:18.854Z,61.97
2019-01-03T10:48:18.870Z,62.31
2019-01-03T10:49:18.834Z,62.73
2019-01-03T10:50:19.005Z,61.97
2019-01-03T10:51:18.850Z,61.76
2019-01-03T10:52:18.792Z,62.39
2019-01-03T10:53:18.780Z,62.91
2019-01-03T10:54:18.772Z,62.91
2019-01-03T10:55:18.759Z,61.76
2019-01-03T10:56:18.748Z,62.07
2019-01-03T10:57:18.767Z,62.28
2019-01-03T10:58:18.724Z,62.07
2019-01-03T10:59:18.721Z,61.87
2019-01-03T11:00:18.744Z,62.26
2019-01-03T11:01:18.692Z,62.26
2019-01-03T11:02:18.709Z,61.00
2019-01-03T11:03:18.723Z,60.69
2019-01-03T11:04:18.658Z,61.94
2019-01-03T11:05:18.652Z,61.83
2019-01-03T11:06:18.636Z,60.48
2019-01-03T11:07:18.632Z,60.38
2019-01-03T11:08:18.623Z,60.38
2019-01-03T11:09:18.641Z,61.18
2019-01-03T11:10:18.601Z,61.18
2019-01-03T11:11:18.584Z,60.66
2019-01-03T11:12:18.573Z,60.66
2019-01-03T11:13:18.557Z,60.46
2019-01-03T11:14:18.550Z,60.06
2019-01-03T11:15:18.600Z,59.72
2019-01-03T11:16:18.538Z,59.41
2019-01-03T11:17:18.516Z,58.89
2019-01-03T11:18:18.505Z,59.52
2019-01-03T11:19:18.495Z,60.35
2019-01-03T11:20:18.482Z,60.46
2019-01-03T11:21:18.498Z,59.41
2019-01-03T11:22:18.458Z,60.04
2019-01-03T11:23:18.447Z,60.04
2019-01-03T11:24:18.435Z,59.31
2019-01-03T11:25:18.423Z,58.97
2019-01-03T11:26:18.413Z,59.59
2019-01-03T11:27:18.434Z,59.28
2019-01-03T11:28:18.392Z,59.07
2019-01-03T11:29:18.379Z,59.07
2019-01-03T11:30:18.369Z,59.28
2019-01-03T11:31:18.358Z,59.72
2019-01-03T11:32:18.346Z,59.70
2019-01-03T11:33:18.364Z,60.87
2019-01-03T11:34:18.326Z,60.32
2019-01-03T11:35:18.313Z,60.53
2019-01-03T11:36:18.306Z,59.07
2019-01-03T11:37:18.870Z,59.07
2019-01-03T11:38:18.327Z,59.70
2019-01-03T11:39:18.323Z,59.49
2019-01-03T11:40:18.344Z,59.49
2019-01-03T11:41:18.249Z,60.01
2019-01-03T11:42:18.236Z,59.07
2019-01-03T11:43:18.243Z,59.70
2019-01-03T11:44:18.546Z,59.07
2019-01-03T11:45:18.234Z,59.17
2019-01-03T11:46:18.191Z,59.70
2019-01-03T11:47:18.182Z,59.49
2019-01-03T11:48:18.173Z,59.20
2019-01-03T11:49:18.157Z,60.14
2019-01-03T11:50:18.175Z,60.35
2019-01-03T11:51:18.164Z,61.08
2019-01-03T11:52:18.131Z,60.87
2019-01-03T11:53:18.118Z,60.56
2019-01-03T11:54:18.102Z,60.42
2019-01-03T11:55:18.092Z,60.32
2019-01-03T11:56:18.081Z,60.46
2019-01-03T11:57:18.096Z,59.41
2019-01-03T11:58:18.058Z,60.32
2019-01-03T11:59:18.047Z,60.77
2019-01-03T12:00:26.911Z,61.18
2019-01-03T12:01:26.449Z,61.40
2019-01-03T12:02:18.024Z,60.97
2019-01-03T12:03:25.948Z,60.35
2019-01-03T12:04:17.992Z,60.87
2019-01-03T12:05:17.979Z,60.56
2019-01-03T12:06:17.967Z,61.81
2019-01-03T12:07:17.976Z,61.91
2019-01-03T12:08:17.947Z,62.02
2019-01-03T12:09:17.961Z,62.02
2019-01-03T12:10:17.923Z,62.23
2019-01-03T12:11:17.943Z,61.50
2019-01-03T12:12:17.901Z,61.71
2019-01-03T12:13:17.895Z,61.71
2019-01-03T12:14:17.882Z,62.02
2019-01-03T12:15:17.901Z,61.60
2019-01-03T12:16:17.858Z,62.12
2019-01-03T12:17:17.852Z,62.64
2019-01-03T12:18:17.834Z,61.81
2019-01-03T12:19:17.827Z,61.81
2019-01-03T12:20:17.813Z,62.33
2019-01-03T12:21:17.831Z,62.96
2019-01-03T12:22:17.794Z,62.33
2019-01-03T12:23:17.780Z,62.43
2019-01-03T12:24:17.767Z,62.23
2019-01-03T12:25:17.757Z,61.81
2019-01-03T12:26:17.753Z,62.23
2019-01-03T12:27:17.763Z,62.23
2019-01-03T12:28:17.723Z,61.60
2019-01-03T12:29:17.711Z,61.91
2019-01-03T12:30:17.701Z,61.81
2019-01-03T12:31:17.689Z,62.12
2019-01-03T12:32:17.682Z,61.60
2019-01-03T12:33:17.699Z,61.71
2019-01-03T12:34:17.659Z,62.02
2019-01-03T12:35:17.647Z,61.71
2019-01-03T12:36:17.636Z,62.02
2019-01-03T12:37:17.622Z,62.62
2019-01-03T12:38:17.614Z,62.93
2019-01-03T12:39:17.637Z,62.30
2019-01-03T12:40:17.590Z,61.99
2019-01-03T12:41:17.579Z,61.68
2019-01-03T12:42:17.567Z,61.50
2019-01-03T12:43:17.557Z,62.51
2019-01-03T12:44:17.549Z,62.41
2019-01-03T12:45:17.564Z,62.41
2019-01-03T12:46:17.522Z,62.41
2019-01-03T12:47:17.511Z,62.41
2019-01-03T12:48:17.503Z,62.09
2019-01-03T12:49:17.493Z,61.88
2019-01-03T12:50:17.479Z,61.78
2019-01-03T12:51:17.495Z,61.68
2019-01-03T12:52:17.456Z,61.68